createdAt,value
2017-12-14T00:01:06.302Z,8.60
2017-12-14T00:03:33.862Z,8.60
2017-12-14T00:06:02.171Z,8.90
2017-12-14T00:08:29.736Z,8.47
2017-12-14T00:10:58.046Z,8.10
2017-12-14T00:13:26.376Z,8.33
2017-12-14T00:15:53.924Z,8.03
2017-12-14T00:18:22.240Z,8.13
2017-12-14T00:20:50.544Z,9.33
2017-12-14T00:23:18.098Z,7.80
2017-12-14T00:25:45.641Z,7.60
2017-12-14T00:28:13.202Z,8.87
2017-12-14T00:30:40.753Z,9.00
2017-12-14T00:33:08.350Z,8.63
2017-12-14T00:35:36.652Z,8.60
2017-12-14T00:38:04.969Z,9.33
2017-12-14T00:40:33.274Z,9.00
2017-12-14T00:43:00.837Z,8.30
2017-12-14T00:45:29.149Z,9.27
2017-12-14T00:47:57.457Z,8.07
2017-12-14T00:50:25.018Z,8.83
2017-12-14T00:52:53.324Z,7.53
2017-12-14T00:55:21.652Z,7.37
2017-12-14T00:57:49.188Z,8.33
2017-12-14T01:00:16.737Z,7.50
2017-12-14T01:02:44.276Z,7.90
2017-12-14T01:05:12.609Z,6.90
2017-12-14T01:07:40.153Z,7.70
2017-12-14T01:10:07.712Z,7.80
2017-12-14T01:12:35.253Z,6.63
2017-12-14T01:15:02.812Z,7.20
2017-12-14T01:17:31.118Z,6.63
2017-12-14T01:19:59.426Z,6.30
2017-12-14T01:22:27.745Z,6.70
2017-12-14T01:24:55.291Z,6.63
2017-12-14T01:27:22.858Z,7.33
2017-12-14T01:29:50.395Z,6.80
2017-12-14T01:32:17.952Z,6.83
2017-12-14T01:34:46.257Z,6.43
2017-12-14T01:37:14.581Z,7.50
2017-12-14T01:39:42.127Z,6.30
2017-12-14T01:42:09.694Z,6.30
2017-12-14T01:44:37.258Z,6.87
2017-12-14T01:47:04.823Z,6.67
2017-12-14T01:49:32.361Z,6.23
2017-12-14T01:51:59.982Z,6.40
2017-12-14T01:54:27.485Z,6.43
2017-12-14T01:56:55.040Z,5.57
2017-12-14T01:59:23.352Z,6.10
2017-12-14T02:01:50.982Z,6.00
2017-12-14T02:04:18.543Z,5.47
2017-12-14T02:06:46.088Z,4.20
2017-12-14T02:09:14.429Z,5.60
2017-12-14T02:11:41.969Z,5.57
2017-12-14T02:14:10.300Z,5.83
2017-12-14T02:16:37.841Z,5.60
2017-12-14T02:19:05.397Z,5.70
2017-12-14T02:21:32.943Z,5.00
2017-12-14T02:24:00.515Z,4.97
2017-12-14T02:26:28.812Z,5.27
2017-12-14T02:28:57.137Z,5.33
2017-12-14T02:31:24.676Z,4.90
2017-12-14T02:33:52.234Z,5.20
2017-12-14T02:36:19.768Z,4.23
2017-12-14T02:38:48.078Z,4.20
2017-12-14T02:41:16.401Z,4.43
2017-12-14T02:43:43.980Z,3.80
2017-12-14T02:46:11.541Z,4.10
2017-12-14T02:48:39.853Z,3.90
2017-12-14T02:51:07.422Z,3.03
2017-12-14T02:53:35.726Z,3.40
2017-12-14T02:56:03.290Z,2.67
2017-12-14T02:58:30.874Z,2.33
2017-12-14T03:00:58.432Z,2.57
2017-12-14T03:03:25.970Z,2.70
2017-12-14T03:05:54.293Z,2.43
2017-12-14T03:08:21.836Z,2.83
2017-12-14T03:10:49.417Z,3.10
2017-12-14T03:13:16.963Z,2.83
2017-12-14T03:15:44.507Z,2.70
2017-12-14T03:18:12.838Z,2.73
2017-12-14T03:20:40.435Z,2.40
2017-12-14T03:23:08.125Z,2.27
2017-12-14T03:25:36.219Z,2.80
2017-12-14T03:28:04.192Z,3.87
2017-12-14T03:30:31.741Z,2.80
2017-12-14T03:32:59.298Z,3.40
2017-12-14T03:35:26.833Z,4.07
2017-12-14T03:37:55.152Z,3.83
2017-12-14T03:40:22.693Z,3.87
2017-12-14T03:42:50.259Z,4.53
2017-12-14T03:45:17.802Z,3.70
2017-12-14T03:47:45.365Z,4.63
2017-12-14T03:50:13.678Z,4.97
2017-12-14T03:52:41.209Z,4.70
2017-12-14T03:55:08.781Z,5.73
2017-12-14T03:57:36.318Z,5.50
2017-12-14T04:00:04.661Z,5.83
2017-12-14T04:02:32.200Z,5.87
2017-12-14T04:05:00.527Z,6.40
2017-12-14T04:07:28.068Z,7.33
2017-12-14T04:09:55.621Z,6.27
2017-12-14T04:12:23.161Z,6.90
2017-12-14T04:14:51.486Z,7.93
2017-12-14T04:17:19.017Z,7.17
2017-12-14T04:19:46.577Z,7.93
2017-12-14T04:22:14.120Z,9.07
2017-12-14T04:24:41.701Z,9.20
2017-12-14T04:27:09.273Z,9.67
2017-12-14T04:29:37.573Z,8.37
2017-12-14T04:32:05.909Z,9.03
2017-12-14T04:34:33.444Z,8.97
2017-12-14T04:37:00.997Z,7.93
2017-12-14T04:39:28.545Z,8.23
2017-12-14T04:41:56.102Z,7.87
2017-12-14T04:44:24.423Z,8.73
2017-12-14T04:46:52.750Z,7.37
2017-12-14T04:49:20.293Z,7.50
2017-12-14T04:51:48.616Z,7.50
2017-12-14T04:54:16.158Z,7.50
2017-12-14T04:56:43.729Z,6.50
2017-12-14T04:59:11.265Z,5.37
2017-12-14T05:01:38.837Z,4.00
2017-12-14T05:04:07.147Z,3.77
2017-12-14T05:06:35.472Z,4.00
2017-12-14T05:09:03.088Z,3.90
2017-12-14T05:11:30.681Z,4.20
2017-12-14T05:13:58.220Z,3.63
2017-12-14T05:16:26.525Z,2.73
2017-12-14T05:18:54.091Z,3.70
2017-12-14T05:21:21.632Z,3.13
2017-12-14T05:23:49.258Z,2.77
2017-12-14T05:26:16.815Z,2.73
2017-12-14T05:28:44.385Z,2.17
2017-12-14T05:31:12.726Z,2.97
2017-12-14T05:33:41.049Z,2.77
2017-12-14T05:36:08.615Z,2.73
2017-12-14T05:38:36.172Z,2.60
2017-12-14T05:41:03.709Z,2.27
2017-12-14T05:43:31.307Z,2.73
2017-12-14T05:45:58.860Z,2.50
2017-12-14T05:48:27.221Z,2.13
2017-12-14T05:50:54.761Z,2.20
2017-12-14T05:53:22.315Z,3.00
2017-12-14T05:55:50.617Z,2.73
2017-12-14T05:58:18.988Z,1.77
2017-12-14T06:00:46.528Z,1.80
2017-12-14T06:03:14.067Z,2.20
2017-12-14T06:05:42.510Z,2.13
2017-12-14T06:08:10.086Z,2.37
2017-12-14T06:10:37.666Z,2.10
2017-12-14T06:13:06.145Z,2.23
2017-12-14T06:15:34.481Z,2.77
2017-12-14T06:18:02.028Z,1.93
2017-12-14T06:20:29.586Z,1.60
2017-12-14T06:22:57.117Z,1.60
2017-12-14T06:25:24.681Z,1.77
2017-12-14T06:27:52.217Z,2.00
2017-12-14T06:30:19.788Z,2.53
2017-12-14T06:32:47.334Z,1.70
2017-12-14T06:35:14.902Z,2.43
2017-12-14T06:37:42.445Z,2.83
2017-12-14T06:40:10.033Z,1.70
2017-12-14T06:42:37.575Z,2.30
2017-12-14T06:45:05.872Z,2.30
2017-12-14T06:47:33.428Z,2.30
2017-12-14T06:50:00.980Z,2.43
2017-12-14T06:52:28.536Z,2.37
2017-12-14T06:54:56.848Z,2.80
2017-12-14T06:57:24.429Z,2.27
2017-12-14T06:59:51.977Z,2.40
2017-12-14T07:02:19.561Z,2.77
2017-12-14T07:04:47.092Z,2.73
2017-12-14T07:07:14.656Z,3.03
2017-12-14T07:09:42.958Z,2.90
2017-12-14T07:12:11.276Z,3.20
2017-12-14T07:14:38.813Z,3.20
2017-12-14T07:17:07.166Z,2.77
2017-12-14T07:19:34.720Z,3.33
2017-12-14T07:22:03.030Z,4.00
2017-12-14T07:24:31.352Z,3.80
2017-12-14T07:26:58.897Z,2.90
2017-12-14T07:29:26.454Z,3.20
2017-12-14T07:31:53.993Z,2.90
2017-12-14T07:34:21.553Z,3.00
2017-12-14T07:36:49.095Z,2.60
2017-12-14T07:39:16.660Z,3.07
2017-12-14T07:41:44.197Z,3.37
2017-12-14T07:44:23.740Z,3.13
2017-12-14T07:47:03.060Z,2.67
2017-12-14T07:49:40.800Z,3.20
2017-12-14T07:52:08.695Z,2.80
2017-12-14T07:54:38.429Z,2.53
2017-12-14T08:49:24.983Z,4.00
2017-12-14T08:51:52.787Z,3.87
2017-12-14T08:54:20.617Z,2.90
2017-12-14T08:56:48.424Z,3.47
2017-12-14T08:59:17.021Z,2.90
2017-12-14T09:01:44.755Z,3.37
2017-12-14T09:04:12.356Z,2.90
2017-12-14T09:06:39.909Z,3.53
2017-12-14T09:09:07.476Z,3.17
2017-12-14T09:11:35.030Z,3.60
2017-12-14T09:14:02.589Z,4.27
2017-12-14T09:16:30.123Z,3.00
2017-12-14T09:18:57.682Z,2.67
2017-12-14T09:21:25.232Z,3.47
2017-12-14T09:23:53.566Z,3.60
2017-12-14T09:26:21.112Z,3.30
2017-12-14T09:28:49.445Z,4.23
2017-12-14T09:31:16.980Z,3.30
2017-12-14T09:33:44.503Z,2.90
2017-12-14T09:36:12.048Z,3.90
2017-12-14T09:38:39.583Z,3.30
2017-12-14T09:41:07.149Z,3.10
2017-12-14T09:43:34.696Z,3.00
2017-12-14T09:46:02.261Z,3.80
2017-12-14T09:48:29.783Z,4.13
2017-12-14T09:50:58.110Z,4.27
2017-12-14T09:53:25.648Z,4.17
2017-12-14T09:55:53.199Z,3.43
2017-12-14T09:58:20.760Z,4.10
2017-12-14T10:00:48.315Z,4.10
2017-12-14T10:03:17.348Z,3.63
2017-12-14T10:05:45.676Z,3.10
2017-12-14T10:08:13.985Z,4.20
2017-12-14T10:10:41.532Z,3.90
2017-12-14T10:13:09.829Z,3.03
2017-12-14T10:15:38.147Z,3.43
2017-12-14T10:18:05.683Z,3.60
2017-12-14T10:20:33.217Z,3.67
2017-12-14T10:23:00.773Z,3.40
2017-12-14T10:25:29.076Z,3.53
2017-12-14T10:27:57.396Z,3.47
2017-12-14T10:30:25.700Z,3.47
2017-12-14T10:32:54.025Z,3.70
2017-12-14T10:35:21.560Z,2.97
2017-12-14T10:37:49.881Z,2.87
2017-12-14T10:40:17.412Z,2.97
2017-12-14T10:42:45.734Z,3.23
2017-12-14T10:45:13.273Z,4.53
2017-12-14T10:47:41.591Z,3.60
2017-12-14T10:50:09.120Z,3.30
2017-12-14T10:52:36.675Z,3.57
2017-12-14T10:55:04.211Z,3.80
2017-12-14T10:57:31.834Z,4.30
2017-12-14T10:59:59.420Z,3.00
2017-12-14T11:02:27.744Z,3.20
2017-12-14T11:04:55.284Z,3.50
2017-12-14T11:07:23.579Z,3.43
2017-12-14T11:09:51.137Z,3.30
2017-12-14T11:12:19.440Z,3.00
2017-12-14T11:14:46.990Z,3.40
2017-12-14T11:17:15.300Z,3.40
2017-12-14T11:19:43.626Z,3.80
2017-12-14T11:22:11.152Z,3.50
2017-12-14T11:24:39.471Z,3.57
2017-12-14T11:27:07.010Z,4.70
2017-12-14T11:29:35.342Z,3.53
2017-12-14T11:32:02.876Z,3.30
2017-12-14T11:34:31.210Z,4.50
2017-12-14T11:36:58.754Z,4.30
2017-12-14T11:39:26.312Z,3.33
2017-12-14T11:41:54.608Z,3.33
2017-12-14T11:44:22.147Z,3.40
2017-12-14T11:46:49.709Z,2.93
2017-12-14T11:49:17.233Z,3.30
2017-12-14T11:51:44.809Z,3.60
2017-12-14T11:54:13.115Z,3.40
2017-12-14T11:56:40.678Z,3.53
2017-12-14T11:59:08.216Z,3.60
2017-12-14T12:01:36.555Z,3.23
2017-12-14T12:04:04.105Z,4.00
2017-12-14T12:06:31.661Z,4.50
2017-12-14T12:08:59.198Z,2.97
2017-12-14T12:11:26.832Z,3.40
2017-12-14T12:13:54.364Z,4.00
2017-12-14T12:16:22.738Z,3.83
2017-12-14T12:18:50.257Z,3.30
2017-12-14T12:21:17.813Z,3.00
2017-12-14T12:23:45.339Z,3.07
2017-12-14T12:26:12.888Z,3.27
2017-12-14T12:28:40.432Z,2.73
2017-12-14T12:31:08.000Z,2.53
2017-12-14T12:33:35.541Z,2.90
2017-12-14T12:36:03.847Z,3.30
2017-12-14T12:38:31.406Z,2.97
2017-12-14T12:40:59.706Z,2.77
2017-12-14T12:43:28.031Z,2.60
2017-12-14T12:45:55.579Z,2.53
2017-12-14T12:48:23.129Z,2.23
2017-12-14T12:50:51.447Z,2.33
2017-12-14T12:53:19.007Z,2.40
2017-12-14T12:55:46.550Z,2.17
2017-12-14T12:58:14.108Z,2.03
2017-12-14T13:00:41.673Z,2.07
2017-12-14T13:03:09.232Z,1.70
2017-12-14T13:05:36.770Z,1.63
2017-12-14T13:08:04.314Z,1.77
2017-12-14T13:10:32.621Z,1.77
2017-12-14T13:13:00.175Z,1.67
2017-12-14T13:15:28.477Z,1.50
2017-12-14T13:17:56.031Z,1.30
2017-12-14T13:20:24.329Z,1.40
2017-12-14T13:22:52.677Z,1.10
2017-12-14T13:25:20.234Z,1.00
2017-12-14T13:27:47.788Z,1.17
2017-12-14T13:30:15.433Z,1.00
2017-12-14T13:32:42.998Z,1.10
2017-12-14T13:35:10.552Z,1.10
2017-12-14T13:37:38.098Z,1.30
2017-12-14T13:40:05.697Z,1.47
2017-12-14T13:42:33.217Z,1.20
2017-12-14T13:45:00.768Z,1.23
2017-12-14T13:47:29.074Z,1.70
2017-12-14T13:49:56.637Z,1.63
2017-12-14T13:52:24.181Z,2.10
2017-12-14T13:54:51.737Z,1.20
2017-12-14T13:57:19.271Z,1.30
2017-12-14T13:59:46.825Z,1.73
2017-12-14T14:02:14.363Z,1.43
2017-12-14T14:04:41.912Z,1.30
2017-12-14T14:07:09.506Z,1.50
2017-12-14T14:09:37.044Z,1.33
2017-12-14T14:12:04.604Z,1.40
2017-12-14T14:14:32.165Z,2.07
2017-12-14T14:16:59.722Z,1.27
2017-12-14T14:19:27.251Z,1.80
2017-12-14T14:21:54.835Z,1.53
2017-12-14T14:24:23.145Z,1.60
2017-12-14T14:26:51.473Z,1.43
2017-12-14T14:29:19.018Z,1.90
2017-12-14T14:31:46.569Z,1.43
2017-12-14T14:34:14.872Z,2.27
2017-12-14T14:36:43.188Z,2.07
2017-12-14T14:39:10.740Z,1.80
2017-12-14T14:41:38.336Z,2.00
2017-12-14T14:44:05.878Z,2.33
2017-12-14T14:46:34.206Z,1.50
2017-12-14T14:49:01.753Z,2.43
2017-12-14T14:51:29.312Z,1.50
2017-12-14T14:53:56.857Z,1.77
2017-12-14T14:56:24.420Z,2.03
2017-12-14T14:58:51.949Z,1.90
2017-12-14T15:01:19.504Z,1.63
2017-12-14T15:03:47.073Z,1.90
2017-12-14T15:06:14.704Z,2.03
2017-12-14T15:08:42.257Z,2.27
2017-12-14T15:11:09.812Z,1.80
2017-12-14T15:13:37.368Z,2.53
2017-12-14T15:16:04.916Z,1.60
2017-12-14T15:18:33.235Z,1.63
2017-12-14T15:21:00.792Z,1.70
2017-12-14T15:23:29.106Z,2.30
2017-12-14T15:25:57.402Z,1.90
2017-12-14T15:28:25.770Z,2.13
2017-12-14T15:30:53.309Z,2.40
2017-12-14T15:33:21.619Z,1.77
2017-12-14T15:35:49.152Z,1.87
2017-12-14T15:38:16.709Z,2.00
2017-12-14T15:40:44.254Z,1.70
2017-12-14T15:43:12.578Z,1.80
2017-12-14T15:45:40.128Z,1.73
2017-12-14T15:48:07.665Z,2.10
2017-12-14T15:50:35.233Z,2.70
2017-12-14T15:53:03.534Z,2.50
2017-12-14T15:55:31.087Z,2.97
2017-12-14T15:57:59.389Z,2.10
2017-12-14T16:00:26.944Z,1.83
2017-12-14T16:02:55.260Z,2.50
2017-12-14T16:05:22.811Z,2.13
2017-12-14T16:07:51.118Z,3.00
2017-12-14T16:10:18.687Z,2.80
2017-12-14T16:12:46.236Z,3.57
2017-12-14T16:15:14.547Z,3.27
2017-12-14T16:17:42.084Z,3.30
2017-12-14T16:20:09.645Z,3.53
2017-12-14T16:22:37.179Z,3.80
2017-12-14T16:25:04.717Z,4.20
2017-12-14T16:27:33.040Z,4.13
2017-12-14T16:30:00.580Z,4.33
2017-12-14T16:32:28.905Z,4.63
2017-12-14T16:34:56.453Z,4.50
2017-12-14T16:37:24.008Z,4.90
2017-12-14T16:39:52.357Z,4.80
2017-12-14T16:42:19.914Z,5.47
2017-12-14T16:44:47.461Z,6.10
2017-12-14T16:47:15.030Z,5.90
2017-12-14T16:49:42.568Z,5.30
2017-12-14T16:52:10.140Z,5.60
2017-12-14T16:54:38.579Z,6.80
2017-12-14T16:57:06.157Z,5.73
2017-12-14T16:59:33.717Z,6.10
2017-12-14T17:02:01.269Z,5.73
2017-12-14T17:04:29.588Z,5.40
2017-12-14T17:06:57.119Z,5.23
2017-12-14T17:09:25.464Z,6.17
2017-12-14T17:11:53.003Z,5.30
2017-12-14T17:14:20.560Z,4.80
2017-12-14T17:16:48.099Z,4.60
2017-12-14T17:19:15.655Z,4.80
2017-12-14T17:21:43.197Z,5.00
2017-12-14T17:24:10.746Z,4.93
2017-12-14T17:26:39.051Z,4.23
2017-12-14T17:29:06.603Z,4.60
2017-12-14T17:31:34.929Z,5.23
2017-12-14T17:34:02.507Z,4.40
2017-12-14T17:36:30.081Z,4.10
2017-12-14T17:38:57.603Z,4.80
2017-12-14T17:41:25.920Z,4.30
2017-12-14T17:43:53.457Z,4.43
2017-12-14T17:46:21.776Z,3.60
2017-12-14T17:48:49.333Z,3.90
2017-12-14T17:51:16.893Z,4.23
2017-12-14T17:53:45.195Z,3.73
2017-12-14T17:56:12.744Z,3.80
2017-12-14T17:58:40.281Z,4.50
2017-12-14T18:01:07.828Z,3.70
2017-12-14T18:03:35.366Z,3.93
2017-12-14T18:06:03.689Z,4.20
2017-12-14T18:08:31.235Z,3.60
2017-12-14T18:10:59.547Z,4.00
2017-12-14T18:13:27.077Z,3.60
2017-12-14T18:15:55.419Z,4.33
2017-12-14T18:18:22.961Z,3.70
2017-12-14T18:20:50.513Z,3.30
2017-12-14T18:23:18.834Z,3.20
2017-12-14T18:25:46.359Z,3.80
2017-12-14T18:28:13.920Z,3.20
2017-12-14T18:30:41.465Z,4.13
2017-12-14T18:33:09.031Z,4.00
2017-12-14T18:35:36.567Z,4.50
2017-12-14T18:38:04.890Z,3.90
2017-12-14T18:40:32.425Z,3.93
2017-12-14T18:43:00.739Z,4.07
2017-12-14T18:45:28.270Z,3.97
2017-12-14T18:47:55.829Z,3.50
2017-12-14T18:50:23.359Z,4.30
2017-12-14T18:52:50.924Z,3.83
2017-12-14T18:55:18.457Z,4.13
2017-12-14T18:57:45.993Z,4.03
2017-12-14T19:00:13.547Z,6.20
2017-12-14T19:02:41.123Z,3.53
2017-12-14T19:05:08.676Z,3.63
2017-12-14T19:07:36.237Z,3.50
2017-12-14T19:10:04.568Z,3.27
2017-12-14T19:12:32.131Z,7.17
2017-12-14T19:14:59.685Z,3.47
2017-12-14T19:17:27.215Z,3.70
2017-12-14T19:19:54.764Z,3.30
2017-12-14T19:22:22.304Z,3.97
2017-12-14T19:24:52.044Z,3.63
2017-12-14T19:27:19.608Z,3.87
2017-12-14T19:29:49.721Z,4.00
2017-12-14T19:32:17.401Z,4.10
2017-12-14T19:34:44.991Z,3.50
2017-12-14T19:37:12.557Z,3.77
2017-12-14T19:39:40.216Z,3.73
2017-12-14T19:42:07.748Z,3.20
2017-12-14T19:44:35.481Z,3.67
2017-12-14T19:47:03.051Z,4.00
2017-12-14T19:49:31.085Z,3.47
2017-12-14T19:51:58.652Z,3.40
2017-12-14T19:54:26.184Z,3.77
2017-12-14T19:56:53.748Z,4.60
2017-12-14T19:59:21.288Z,4.23
2017-12-14T20:01:49.608Z,3.87
2017-12-14T20:04:17.173Z,4.30
2017-12-14T20:06:44.738Z,3.50
2017-12-14T20:09:19.309Z,4.13
2017-12-14T20:11:46.888Z,3.97
2017-12-14T20:14:15.696Z,4.13
2017-12-14T20:16:43.270Z,4.47
2017-12-14T20:19:10.809Z,4.50
2017-12-14T20:21:39.104Z,5.40
2017-12-14T20:24:06.639Z,4.63
2017-12-14T20:26:34.266Z,4.30
2017-12-14T20:29:01.825Z,4.47
2017-12-14T20:31:29.356Z,4.47
2017-12-14T20:33:56.903Z,4.90
2017-12-14T20:36:24.437Z,4.30
2017-12-14T20:38:51.993Z,5.57
2017-12-14T20:41:19.526Z,5.30
2017-12-14T20:43:47.860Z,4.83
2017-12-14T20:46:15.497Z,5.90
2017-12-14T20:48:43.807Z,5.73
2017-12-14T20:51:11.422Z,5.87
2017-12-14T20:53:39.040Z,5.00
2017-12-14T20:56:07.475Z,5.03
2017-12-14T20:58:35.079Z,6.00
2017-12-14T21:01:02.619Z,4.50
2017-12-14T21:03:30.169Z,5.77
2017-12-14T21:05:57.719Z,5.30
2017-12-14T21:08:25.266Z,5.30
2017-12-14T21:10:54.608Z,6.03
2017-12-14T21:13:22.363Z,4.93
2017-12-14T21:15:50.685Z,5.40
2017-12-14T21:18:18.222Z,5.43
2017-12-14T21:20:46.552Z,5.50
2017-12-14T21:23:14.092Z,5.03
2017-12-14T21:25:42.483Z,5.20
2017-12-14T21:28:10.068Z,5.37
2017-12-14T21:30:37.862Z,4.90
2017-12-14T21:33:05.598Z,5.93
2017-12-14T21:35:34.205Z,5.50
2017-12-14T21:38:01.915Z,5.50
2017-12-14T21:40:29.746Z,4.43
2017-12-14T21:42:58.391Z,5.60
2017-12-14T21:45:27.090Z,4.87
2017-12-14T21:47:54.896Z,5.90
2017-12-14T21:50:22.664Z,4.70
2017-12-14T21:52:50.424Z,5.43
2017-12-14T21:55:18.198Z,5.07
2017-12-14T21:57:46.160Z,5.70
2017-12-14T22:00:14.046Z,5.07
2017-12-14T22:02:41.906Z,5.73
2017-12-14T22:05:09.684Z,5.77
2017-12-14T22:07:37.469Z,5.30
2017-12-14T22:10:05.121Z,5.17
2017-12-14T22:12:33.772Z,5.10
2017-12-14T22:15:01.526Z,5.50
2017-12-14T22:17:29.273Z,5.73
2017-12-14T22:19:56.965Z,5.57
2017-12-14T22:22:24.684Z,5.57
2017-12-14T22:24:52.487Z,5.60
2017-12-14T22:27:20.387Z,5.53
2017-12-14T22:29:48.322Z,4.70
2017-12-14T22:32:16.068Z,4.97
2017-12-14T22:34:43.927Z,4.33
2017-12-14T22:37:12.456Z,4.67
2017-12-14T22:39:41.042Z,5.43
2017-12-14T22:42:08.856Z,5.57
2017-12-14T22:44:36.636Z,5.77
2017-12-14T22:47:05.230Z,4.90
2017-12-14T22:49:33.082Z,5.50
2017-12-14T22:52:00.894Z,5.03
2017-12-14T22:54:29.247Z,5.77
2017-12-14T22:56:56.796Z,5.00
2017-12-14T22:59:28.796Z,4.80
2017-12-14T23:01:56.333Z,6.13
2017-12-14T23:04:24.647Z,5.20
2017-12-14T23:06:52.194Z,5.10
2017-12-14T23:09:19.792Z,5.97
2017-12-14T23:11:47.329Z,6.23
2017-12-14T23:14:14.892Z,5.30
2017-12-14T23:16:42.433Z,6.20
2017-12-14T23:19:09.986Z,6.60
2017-12-14T23:21:37.525Z,4.60
2017-12-14T23:24:05.876Z,5.40
2017-12-14T23:26:33.421Z,5.20
2017-12-14T23:29:00.981Z,5.17
2017-12-14T23:31:28.593Z,5.57
2017-12-14T23:33:56.938Z,5.57
2017-12-14T23:36:24.500Z,4.60
2017-12-14T23:38:52.805Z,4.80
2017-12-14T23:41:20.367Z,5.00
2017-12-14T23:43:47.950Z,5.17
2017-12-14T23:46:16.254Z,5.50
2017-12-14T23:48:43.793Z,5.10
2017-12-14T23:51:11.365Z,5.80
2017-12-14T23:53:39.664Z,5.73
2017-12-14T23:56:07.215Z,4.70
2017-12-14T23:58:35.521Z,5.33
